CheckWX is a tool to help pilots better visualize weather data.  It is not intended as a substitute for an official pre-flight weather briefing.

06:33:17 UTC

KGRB TAF
Green Bay-Austin Straubel International Airport
Green Bay, Wisconsin, USA
KGRB 240619Z 2406/2506 08006KT 4SM -DZSN BR OVC006 FM240900 08006KT 1 1/2SM -SN BR OVC004 FM241700 06008KT 1 1/2SM -SN BR OVC006 FM250000 04009KT 2SM -DZSN BR OVC007 FM250100 04009G16KT 2SM -DZSN BR OVC005

Jan-24@
06:00 UTC

Jan-24 @ 06:00 UTC

Jan-24@
09:00 UTC

Jan-24 @ 09:00 UTC

KGRB 240619Z 2406/2506 08006KT 4SM -DZSN BR OVC006
Wind
  • 080° at 6 KTS
Conditions
Light Drizzle, Light Snow, Mist
Cloud Levels
  • Overcast at 600' AGL

Jan-24@
09:00 UTC

Jan-24 @ 09:00 UTC

Jan-24@
17:00 UTC

Jan-24 @ 17:00 UTC

FM240900 08006KT 1 1/2SM -SN BR OVC004

From

From Standard forecast or significant change

Wind
  • 080° at 6 KTS
Conditions
Light Snow, Mist
Cloud Levels
  • Overcast at 400' AGL

Jan-24@
17:00 UTC

Jan-24 @ 17:00 UTC

Jan-25@
00:00 UTC

Jan-25 @ 00:00 UTC

FM241700 06008KT 1 1/2SM -SN BR OVC006

From

From Standard forecast or significant change

Wind
  • 060° at 8 KTS
Conditions
Light Snow, Mist
Cloud Levels
  • Overcast at 600' AGL

Jan-25@
00:00 UTC

Jan-25 @ 00:00 UTC

Jan-25@
01:00 UTC

Jan-25 @ 01:00 UTC

FM250000 04009KT 2SM -DZSN BR OVC007

From

From Standard forecast or significant change

Wind
  • 040° at 9 KTS
Conditions
Light Drizzle, Light Snow, Mist
Cloud Levels
  • Overcast at 700' AGL

Jan-25@
01:00 UTC

Jan-25 @ 01:00 UTC

Jan-25@
06:00 UTC

Jan-25 @ 06:00 UTC

FM250100 04009G16KT 2SM -DZSN BR OVC005

From

From Standard forecast or significant change

Wind
  • 040° at 9 KTS
  • {Gusting to 16 KTS
Conditions
Light Drizzle, Light Snow, Mist
Cloud Levels
  • Overcast at 500' AGL